sensor_id;sensor_type;location;lat;lon;timestamp;P1;durP1;ratioP1;P2;durP2;ratioP2
82495;SDS011;72133;42.522;24.800;2023-12-20T00:02:16;12.45;;;8.50;;
82495;SDS011;72133;42.522;24.800;2023-12-20T00:04:42;12.57;;;8.40;;
82495;SDS011;72133;42.522;24.800;2023-12-20T00:07:07;12.65;;;7.90;;
82495;SDS011;72133;42.522;24.800;2023-12-20T00:09:33;14.38;;;8.90;;
82495;SDS011;72133;42.522;24.800;2023-12-20T00:11:58;14.10;;;9.02;;
82495;SDS011;72133;42.522;24.800;2023-12-20T00:14:24;13.98;;;9.02;;
82495;SDS011;72133;42.522;24.800;2023-12-20T00:16:50;11.95;;;8.25;;
82495;SDS011;72133;42.522;24.800;2023-12-20T00:19:15;12.50;;;8.95;;
82495;SDS011;72133;42.522;24.800;2023-12-20T00:21:41;12.18;;;9.02;;
82495;SDS011;72133;42.522;24.800;2023-12-20T00:24:07;10.68;;;7.53;;
82495;SDS011;72133;42.522;24.800;2023-12-20T00:26:32;11.07;;;8.00;;
82495;SDS011;72133;42.522;24.800;2023-12-20T00:28:58;11.57;;;8.40;;
82495;SDS011;72133;42.522;24.800;2023-12-20T00:31:23;13.25;;;9.25;;
82495;SDS011;72133;42.522;24.800;2023-12-20T00:33:49;13.45;;;8.82;;
82495;SDS011;72133;42.522;24.800;2023-12-20T00:36:15;13.27;;;8.77;;
82495;SDS011;72133;42.522;24.800;2023-12-20T00:38:41;13.63;;;8.93;;
82495;SDS011;72133;42.522;24.800;2023-12-20T00:41:07;15.18;;;9.18;;
82495;SDS011;72133;42.522;24.800;2023-12-20T00:43:32;12.60;;;9.45;;
82495;SDS011;72133;42.522;24.800;2023-12-20T00:45:58;13.23;;;9.02;;
82495;SDS011;72133;42.522;24.800;2023-12-20T00:48:25;12.65;;;9.25;;
82495;SDS011;72133;42.522;24.800;2023-12-20T00:50:52;14.52;;;9.30;;
82495;SDS011;72133;42.522;24.800;2023-12-20T00:53:17;13.10;;;9.35;;
82495;SDS011;72133;42.522;24.800;2023-12-20T00:55:43;14.55;;;9.05;;
82495;SDS011;72133;42.522;24.800;2023-12-20T00:58:10;12.15;;;8.00;;
82495;SDS011;72133;42.522;24.800;2023-12-20T01:00:35;16.23;;;9.48;;
82495;SDS011;72133;42.522;24.800;2023-12-20T01:03:01;11.02;;;8.52;;
82495;SDS011;72133;42.522;24.800;2023-12-20T01:05:26;10.13;;;7.55;;
82495;SDS011;72133;42.522;24.800;2023-12-20T01:07:52;13.73;;;8.90;;
82495;SDS011;72133;42.522;24.800;2023-12-20T01:10:18;13.55;;;9.13;;
82495;SDS011;72133;42.522;24.800;2023-12-20T01:12:43;12.88;;;9.00;;
82495;SDS011;72133;42.522;24.800;2023-12-20T01:15:09;11.98;;;8.82;;
82495;SDS011;72133;42.522;24.800;2023-12-20T01:17:35;14.85;;;9.85;;
82495;SDS011;72133;42.522;24.800;2023-12-20T01:20:01;13.43;;;9.45;;
82495;SDS011;72133;42.522;24.800;2023-12-20T01:22:26;14.02;;;9.48;;
82495;SDS011;72133;42.522;24.800;2023-12-20T01:24:52;14.45;;;10.52;;
82495;SDS011;72133;42.522;24.800;2023-12-20T01:27:17;14.38;;;10.73;;
82495;SDS011;72133;42.522;24.800;2023-12-20T01:29:43;18.23;;;9.95;;
82495;SDS011;72133;42.522;24.800;2023-12-20T01:32:09;15.40;;;10.35;;
82495;SDS011;72133;42.522;24.800;2023-12-20T01:34:34;15.10;;;10.02;;
82495;SDS011;72133;42.522;24.800;2023-12-20T01:37:01;15.73;;;10.02;;
82495;SDS011;72133;42.522;24.800;2023-12-20T01:39:27;11.93;;;8.07;;
82495;SDS011;72133;42.522;24.800;2023-12-20T01:41:53;12.63;;;8.82;;
82495;SDS011;72133;42.522;24.800;2023-12-20T01:44:18;14.15;;;9.40;;
82495;SDS011;72133;42.522;24.800;2023-12-20T01:46:45;15.23;;;9.68;;
82495;SDS011;72133;42.522;24.800;2023-12-20T01:49:10;14.20;;;10.18;;
82495;SDS011;72133;42.522;24.800;2023-12-20T01:51:36;14.18;;;10.52;;
82495;SDS011;72133;42.522;24.800;2023-12-20T01:54:02;13.68;;;9.75;;
82495;SDS011;72133;42.522;24.800;2023-12-20T01:56:27;13.48;;;9.60;;
82495;SDS011;72133;42.522;24.800;2023-12-20T01:58:54;13.65;;;9.82;;
82495;SDS011;72133;42.522;24.800;2023-12-20T02:01:20;16.33;;;9.95;;
82495;SDS011;72133;42.522;24.800;2023-12-20T02:03:46;13.15;;;9.48;;
82495;SDS011;72133;42.522;24.800;2023-12-20T02:06:12;14.55;;;10.35;;
82495;SDS011;72133;42.522;24.800;2023-12-20T02:08:37;15.23;;;9.93;;
82495;SDS011;72133;42.522;24.800;2023-12-20T02:11:03;18.15;;;10.93;;
82495;SDS011;72133;42.522;24.800;2023-12-20T02:13:29;14.95;;;11.88;;
82495;SDS011;72133;42.522;24.800;2023-12-20T02:15:55;14.98;;;10.88;;
82495;SDS011;72133;42.522;24.800;2023-12-20T02:18:21;16.23;;;12.43;;
82495;SDS011;72133;42.522;24.800;2023-12-20T02:20:47;15.02;;;11.32;;
82495;SDS011;72133;42.522;24.800;2023-12-20T02:23:13;16.08;;;10.20;;
82495;SDS011;72133;42.522;24.800;2023-12-20T02:25:38;17.20;;;12.05;;
82495;SDS011;72133;42.522;24.800;2023-12-20T02:28:04;12.48;;;9.10;;
82495;SDS011;72133;42.522;24.800;2023-12-20T02:30:30;15.20;;;10.98;;
82495;SDS011;72133;42.522;24.800;2023-12-20T02:32:56;14.63;;;9.40;;
82495;SDS011;72133;42.522;24.800;2023-12-20T02:35:22;15.60;;;10.52;;
82495;SDS011;72133;42.522;24.800;2023-12-20T02:37:48;14.40;;;10.23;;
82495;SDS011;72133;42.522;24.800;2023-12-20T02:40:13;17.23;;;12.00;;
82495;SDS011;72133;42.522;24.800;2023-12-20T02:42:39;17.58;;;12.77;;
82495;SDS011;72133;42.522;24.800;2023-12-20T02:45:04;16.52;;;11.73;;
82495;SDS011;72133;42.522;24.800;2023-12-20T02:47:30;14.02;;;11.93;;
82495;SDS011;72133;42.522;24.800;2023-12-20T02:49:56;14.68;;;11.52;;
82495;SDS011;72133;42.522;24.800;2023-12-20T02:52:24;14.18;;;10.77;;
82495;SDS011;72133;42.522;24.800;2023-12-20T02:54:50;13.48;;;9.77;;
82495;SDS011;72133;42.522;24.800;2023-12-20T02:57:16;14.27;;;10.55;;
82495;SDS011;72133;42.522;24.800;2023-12-20T02:59:41;15.30;;;11.55;;
82495;SDS011;72133;42.522;24.800;2023-12-20T03:02:07;16.08;;;11.63;;
82495;SDS011;72133;42.522;24.800;2023-12-20T03:04:32;15.23;;;10.85;;
82495;SDS011;72133;42.522;24.800;2023-12-20T03:06:58;16.05;;;10.98;;
82495;SDS011;72133;42.522;24.800;2023-12-20T03:09:24;15.23;;;11.48;;
82495;SDS011;72133;42.522;24.800;2023-12-20T03:11:49;14.98;;;11.23;;
82495;SDS011;72133;42.522;24.800;2023-12-20T03:14:15;13.10;;;10.35;;
82495;SDS011;72133;42.522;24.800;2023-12-20T03:16:41;13.05;;;9.93;;
82495;SDS011;72133;42.522;24.800;2023-12-20T03:19:06;14.48;;;9.75;;
82495;SDS011;72133;42.522;24.800;2023-12-20T03:21:32;12.55;;;9.27;;
82495;SDS011;72133;42.522;24.800;2023-12-20T03:23:57;15.38;;;10.70;;
82495;SDS011;72133;42.522;24.800;2023-12-20T03:26:23;11.88;;;8.85;;
82495;SDS011;72133;42.522;24.800;2023-12-20T03:28:48;12.68;;;8.48;;
82495;SDS011;72133;42.522;24.800;2023-12-20T03:31:14;11.55;;;8.05;;
82495;SDS011;72133;42.522;24.800;2023-12-20T03:33:39;10.90;;;8.82;;
82495;SDS011;72133;42.522;24.800;2023-12-20T03:36:05;11.48;;;8.55;;
82495;SDS011;72133;42.522;24.800;2023-12-20T03:38:31;13.85;;;8.88;;
82495;SDS011;72133;42.522;24.800;2023-12-20T03:40:57;12.48;;;8.18;;
82495;SDS011;72133;42.522;24.800;2023-12-20T03:43:22;12.30;;;8.48;;
82495;SDS011;72133;42.522;24.800;2023-12-20T03:45:48;12.57;;;7.57;;
82495;SDS011;72133;42.522;24.800;2023-12-20T03:48:13;10.82;;;8.05;;
82495;SDS011;72133;42.522;24.800;2023-12-20T03:50:39;11.52;;;7.80;;
82495;SDS011;72133;42.522;24.800;2023-12-20T03:53:04;11.45;;;7.65;;
82495;SDS011;72133;42.522;24.800;2023-12-20T03:55:30;10.95;;;7.45;;
82495;SDS011;72133;42.522;24.800;2023-12-20T03:57:55;10.27;;;7.15;;
82495;SDS011;72133;42.522;24.800;2023-12-20T04:00:21;10.40;;;7.13;;
82495;SDS011;72133;42.522;24.800;2023-12-20T04:02:46;9.73;;;6.70;;
82495;SDS011;72133;42.522;24.800;2023-12-20T04:05:12;11.27;;;7.50;;
82495;SDS011;72133;42.522;24.800;2023-12-20T04:07:38;12.05;;;7.47;;
82495;SDS011;72133;42.522;24.800;2023-12-20T04:10:03;10.25;;;6.95;;
82495;SDS011;72133;42.522;24.800;2023-12-20T04:12:30;10.45;;;6.97;;
82495;SDS011;72133;42.522;24.800;2023-12-20T04:14:56;9.25;;;6.40;;
82495;SDS011;72133;42.522;24.800;2023-12-20T04:17:21;9.07;;;6.63;;
82495;SDS011;72133;42.522;24.800;2023-12-20T04:19:50;9.00;;;6.22;;
82495;SDS011;72133;42.522;24.800;2023-12-20T04:22:17;9.57;;;6.32;;
82495;SDS011;72133;42.522;24.800;2023-12-20T04:24:43;13.60;;;8.18;;
82495;SDS011;72133;42.522;24.800;2023-12-20T04:27:08;11.50;;;8.07;;
82495;SDS011;72133;42.522;24.800;2023-12-20T04:29:34;10.30;;;6.82;;
82495;SDS011;72133;42.522;24.800;2023-12-20T04:31:59;10.10;;;6.78;;
82495;SDS011;72133;42.522;24.800;2023-12-20T04:34:25;9.50;;;6.15;;
82495;SDS011;72133;42.522;24.800;2023-12-20T04:36:51;8.95;;;5.57;;
82495;SDS011;72133;42.522;24.800;2023-12-20T04:39:16;9.65;;;5.75;;
82495;SDS011;72133;42.522;24.800;2023-12-20T04:41:42;10.77;;;6.20;;
82495;SDS011;72133;42.522;24.800;2023-12-20T04:44:07;8.68;;;5.72;;
82495;SDS011;72133;42.522;24.800;2023-12-20T04:46:33;7.55;;;5.55;;
82495;SDS011;72133;42.522;24.800;2023-12-20T04:48:58;6.47;;;4.40;;
82495;SDS011;72133;42.522;24.800;2023-12-20T04:51:24;6.82;;;4.60;;
82495;SDS011;72133;42.522;24.800;2023-12-20T04:53:50;9.30;;;5.15;;
82495;SDS011;72133;42.522;24.800;2023-12-20T04:56:15;10.60;;;5.20;;
82495;SDS011;72133;42.522;24.800;2023-12-20T04:58:42;15.23;;;6.93;;
82495;SDS011;72133;42.522;24.800;2023-12-20T05:01:08;12.02;;;5.38;;
82495;SDS011;72133;42.522;24.800;2023-12-20T05:03:34;10.70;;;5.78;;
82495;SDS011;72133;42.522;24.800;2023-12-20T05:05:59;12.60;;;5.40;;
82495;SDS011;72133;42.522;24.800;2023-12-20T05:08:25;11.23;;;5.63;;
82495;SDS011;72133;42.522;24.800;2023-12-20T05:10:51;9.52;;;5.88;;
82495;SDS011;72133;42.522;24.800;2023-12-20T05:13:18;7.50;;;5.05;;
82495;SDS011;72133;42.522;24.800;2023-12-20T05:15:43;7.43;;;5.03;;
82495;SDS011;72133;42.522;24.800;2023-12-20T05:18:09;8.88;;;5.25;;
82495;SDS011;72133;42.522;24.800;2023-12-20T05:20:35;8.27;;;6.50;;
82495;SDS011;72133;42.522;24.800;2023-12-20T05:23:00;10.38;;;5.70;;
82495;SDS011;72133;42.522;24.800;2023-12-20T05:25:26;10.88;;;6.38;;
82495;SDS011;72133;42.522;24.800;2023-12-20T05:27:52;32.15;;;15.60;;
82495;SDS011;72133;42.522;24.800;2023-12-20T05:30:18;10.85;;;6.30;;
82495;SDS011;72133;42.522;24.800;2023-12-20T05:32:43;30.02;;;14.45;;
82495;SDS011;72133;42.522;24.800;2023-12-20T05:35:09;27.40;;;14.88;;
82495;SDS011;72133;42.522;24.800;2023-12-20T05:37:34;24.85;;;14.48;;
82495;SDS011;72133;42.522;24.800;2023-12-20T05:40:00;14.55;;;9.45;;
82495;SDS011;72133;42.522;24.800;2023-12-20T05:42:25;18.88;;;12.27;;
82495;SDS011;72133;42.522;24.800;2023-12-20T05:44:51;16.73;;;9.45;;
82495;SDS011;72133;42.522;24.800;2023-12-20T05:47:16;13.10;;;8.68;;
82495;SDS011;72133;42.522;24.800;2023-12-20T05:49:43;9.82;;;6.60;;
82495;SDS011;72133;42.522;24.800;2023-12-20T05:52:09;12.27;;;8.20;;
82495;SDS011;72133;42.522;24.800;2023-12-20T05:54:34;12.13;;;7.43;;
82495;SDS011;72133;42.522;24.800;2023-12-20T05:57:00;13.52;;;8.43;;
82495;SDS011;72133;42.522;24.800;2023-12-20T05:59:26;11.93;;;7.85;;
82495;SDS011;72133;42.522;24.800;2023-12-20T06:01:51;10.40;;;7.35;;
82495;SDS011;72133;42.522;24.800;2023-12-20T06:04:17;11.70;;;8.65;;
82495;SDS011;72133;42.522;24.800;2023-12-20T06:06:43;12.40;;;7.72;;
82495;SDS011;72133;42.522;24.800;2023-12-20T06:09:08;11.02;;;7.85;;
82495;SDS011;72133;42.522;24.800;2023-12-20T06:11:34;11.13;;;6.85;;
82495;SDS011;72133;42.522;24.800;2023-12-20T06:14:00;9.73;;;7.05;;
82495;SDS011;72133;42.522;24.800;2023-12-20T06:16:25;12.93;;;6.28;;
82495;SDS011;72133;42.522;24.800;2023-12-20T06:18:51;12.15;;;6.72;;
82495;SDS011;72133;42.522;24.800;2023-12-20T06:21:16;10.90;;;6.57;;
82495;SDS011;72133;42.522;24.800;2023-12-20T06:23:42;9.82;;;6.55;;
82495;SDS011;72133;42.522;24.800;2023-12-20T06:26:07;10.85;;;6.65;;
82495;SDS011;72133;42.522;24.800;2023-12-20T06:28:33;9.35;;;6.47;;
82495;SDS011;72133;42.522;24.800;2023-12-20T06:30:59;11.05;;;6.60;;
82495;SDS011;72133;42.522;24.800;2023-12-20T06:33:25;10.13;;;7.82;;
82495;SDS011;72133;42.522;24.800;2023-12-20T06:35:52;13.00;;;7.32;;
82495;SDS011;72133;42.522;24.800;2023-12-20T06:38:18;12.57;;;7.57;;
82495;SDS011;72133;42.522;24.800;2023-12-20T06:40:44;11.75;;;8.05;;
82495;SDS011;72133;42.522;24.800;2023-12-20T06:43:10;10.70;;;8.50;;
82495;SDS011;72133;42.522;24.800;2023-12-20T06:45:37;12.82;;;9.52;;
82495;SDS011;72133;42.522;24.800;2023-12-20T06:48:02;23.23;;;9.45;;
82495;SDS011;72133;42.522;24.800;2023-12-20T06:50:28;16.02;;;9.77;;
82495;SDS011;72133;42.522;24.800;2023-12-20T06:52:54;15.32;;;10.73;;
82495;SDS011;72133;42.522;24.800;2023-12-20T06:55:19;19.00;;;12.93;;
82495;SDS011;72133;42.522;24.800;2023-12-20T06:57:45;11.68;;;9.45;;
82495;SDS011;72133;42.522;24.800;2023-12-20T07:00:11;12.20;;;9.32;;
82495;SDS011;72133;42.522;24.800;2023-12-20T07:02:37;15.30;;;10.50;;
82495;SDS011;72133;42.522;24.800;2023-12-20T07:05:03;12.48;;;10.05;;
82495;SDS011;72133;42.522;24.800;2023-12-20T07:07:29;12.68;;;9.57;;
82495;SDS011;72133;42.522;24.800;2023-12-20T07:09:55;9.98;;;8.23;;
82495;SDS011;72133;42.522;24.800;2023-12-20T07:12:20;11.75;;;9.38;;
82495;SDS011;72133;42.522;24.800;2023-12-20T07:14:46;14.73;;;13.00;;
82495;SDS011;72133;42.522;24.800;2023-12-20T07:17:12;12.95;;;10.27;;
82495;SDS011;72133;42.522;24.800;2023-12-20T07:19:39;11.48;;;10.00;;
82495;SDS011;72133;42.522;24.800;2023-12-20T07:22:05;11.75;;;9.90;;
82495;SDS011;72133;42.522;24.800;2023-12-20T07:24:31;15.05;;;10.75;;
82495;SDS011;72133;42.522;24.800;2023-12-20T07:26:57;13.65;;;12.20;;
82495;SDS011;72133;42.522;24.800;2023-12-20T07:29:22;17.60;;;15.30;;
82495;SDS011;72133;42.522;24.800;2023-12-20T07:31:48;14.90;;;13.18;;
82495;SDS011;72133;42.522;24.800;2023-12-20T07:34:14;14.13;;;12.10;;
82495;SDS011;72133;42.522;24.800;2023-12-20T07:36:39;11.23;;;9.05;;
82495;SDS011;72133;42.522;24.800;2023-12-20T07:39:05;12.32;;;9.40;;
82495;SDS011;72133;42.522;24.800;2023-12-20T07:41:30;11.02;;;8.93;;
82495;SDS011;72133;42.522;24.800;2023-12-20T07:43:56;10.60;;;9.00;;
82495;SDS011;72133;42.522;24.800;2023-12-20T07:46:21;11.77;;;9.85;;
82495;SDS011;72133;42.522;24.800;2023-12-20T07:48:48;11.25;;;9.35;;
82495;SDS011;72133;42.522;24.800;2023-12-20T07:51:14;13.45;;;11.98;;
82495;SDS011;72133;42.522;24.800;2023-12-20T07:53:39;17.00;;;14.20;;
82495;SDS011;72133;42.522;24.800;2023-12-20T07:56:18;15.48;;;13.82;;
82495;SDS011;72133;42.522;24.800;2023-12-20T07:58:44;16.08;;;13.35;;
82495;SDS011;72133;42.522;24.800;2023-12-20T08:01:10;42.00;;;37.50;;
82495;SDS011;72133;42.522;24.800;2023-12-20T08:03:36;16.08;;;13.63;;
82495;SDS011;72133;42.522;24.800;2023-12-20T08:06:02;11.32;;;8.90;;
82495;SDS011;72133;42.522;24.800;2023-12-20T08:08:28;12.20;;;10.88;;
82495;SDS011;72133;42.522;24.800;2023-12-20T08:10:53;11.27;;;9.18;;
82495;SDS011;72133;42.522;24.800;2023-12-20T08:13:19;8.90;;;7.32;;
82495;SDS011;72133;42.522;24.800;2023-12-20T08:15:44;9.07;;;7.47;;
82495;SDS011;72133;42.522;24.800;2023-12-20T08:18:10;9.23;;;7.97;;
82495;SDS011;72133;42.522;24.800;2023-12-20T08:20:36;13.55;;;10.55;;
82495;SDS011;72133;42.522;24.800;2023-12-20T08:23:01;9.77;;;7.10;;
82495;SDS011;72133;42.522;24.800;2023-12-20T08:25:27;9.65;;;8.10;;
82495;SDS011;72133;42.522;24.800;2023-12-20T08:27:53;8.63;;;7.72;;
82495;SDS011;72133;42.522;24.800;2023-12-20T08:30:18;8.55;;;7.13;;
82495;SDS011;72133;42.522;24.800;2023-12-20T08:32:47;10.13;;;9.07;;
82495;SDS011;72133;42.522;24.800;2023-12-20T08:35:13;11.38;;;9.75;;
82495;SDS011;72133;42.522;24.800;2023-12-20T08:37:39;11.02;;;9.02;;
82495;SDS011;72133;42.522;24.800;2023-12-20T08:40:05;11.35;;;10.25;;
82495;SDS011;72133;42.522;24.800;2023-12-20T08:42:31;9.90;;;8.05;;
82495;SDS011;72133;42.522;24.800;2023-12-20T08:44:59;9.25;;;8.05;;
82495;SDS011;72133;42.522;24.800;2023-12-20T08:47:25;9.60;;;8.45;;
82495;SDS011;72133;42.522;24.800;2023-12-20T08:49:50;9.77;;;7.50;;
82495;SDS011;72133;42.522;24.800;2023-12-20T08:52:16;10.18;;;8.52;;
82495;SDS011;72133;42.522;24.800;2023-12-20T08:54:41;9.73;;;8.43;;
82495;SDS011;72133;42.522;24.800;2023-12-20T08:57:07;9.82;;;8.52;;
82495;SDS011;72133;42.522;24.800;2023-12-20T08:59:33;10.57;;;8.30;;
82495;SDS011;72133;42.522;24.800;2023-12-20T09:01:58;10.98;;;9.43;;
82495;SDS011;72133;42.522;24.800;2023-12-20T09:04:24;14.05;;;12.60;;
82495;SDS011;72133;42.522;24.800;2023-12-20T09:06:50;9.70;;;8.07;;
82495;SDS011;72133;42.522;24.800;2023-12-20T09:09:16;9.70;;;8.63;;
82495;SDS011;72133;42.522;24.800;2023-12-20T09:11:41;10.18;;;9.10;;
82495;SDS011;72133;42.522;24.800;2023-12-20T09:14:07;9.95;;;7.95;;
82495;SDS011;72133;42.522;24.800;2023-12-20T09:16:33;9.55;;;7.72;;
82495;SDS011;72133;42.522;24.800;2023-12-20T09:18:58;11.40;;;8.27;;
82495;SDS011;72133;42.522;24.800;2023-12-20T09:21:24;9.93;;;7.35;;
82495;SDS011;72133;42.522;24.800;2023-12-20T09:23:49;9.13;;;7.68;;
82495;SDS011;72133;42.522;24.800;2023-12-20T09:26:15;10.07;;;6.85;;
82495;SDS011;72133;42.522;24.800;2023-12-20T09:28:41;9.05;;;6.80;;
82495;SDS011;72133;42.522;24.800;2023-12-20T09:31:06;10.05;;;7.72;;
82495;SDS011;72133;42.522;24.800;2023-12-20T09:33:32;11.60;;;10.32;;
82495;SDS011;72133;42.522;24.800;2023-12-20T09:35:58;10.70;;;9.60;;
82495;SDS011;72133;42.522;24.800;2023-12-20T09:38:24;8.73;;;7.75;;
82495;SDS011;72133;42.522;24.800;2023-12-20T09:40:49;9.10;;;7.28;;
82495;SDS011;72133;42.522;24.800;2023-12-20T09:43:15;10.02;;;6.72;;
82495;SDS011;72133;42.522;24.800;2023-12-20T09:45:45;20.95;;;17.08;;
82495;SDS011;72133;42.522;24.800;2023-12-20T09:48:12;40.65;;;29.55;;
82495;SDS011;72133;42.522;24.800;2023-12-20T09:50:39;44.33;;;32.10;;
82495;SDS011;72133;42.522;24.800;2023-12-20T09:53:07;30.88;;;24.58;;
82495;SDS011;72133;42.522;24.800;2023-12-20T09:55:34;66.13;;;55.83;;
82495;SDS011;72133;42.522;24.800;2023-12-20T09:58:01;67.07;;;58.42;;
82495;SDS011;72133;42.522;24.800;2023-12-20T10:00:27;31.55;;;28.25;;
82495;SDS011;72133;42.522;24.800;2023-12-20T10:05:25;17.58;;;14.65;;
82495;SDS011;72133;42.522;24.800;2023-12-20T10:07:54;11.57;;;10.13;;
82495;SDS011;72133;42.522;24.800;2023-12-20T10:10:20;16.38;;;11.13;;
82495;SDS011;72133;42.522;24.800;2023-12-20T10:13:00;13.38;;;10.00;;
82495;SDS011;72133;42.522;24.800;2023-12-20T10:15:27;13.15;;;10.93;;
82495;SDS011;72133;42.522;24.800;2023-12-20T10:17:53;15.98;;;10.88;;
82495;SDS011;72133;42.522;24.800;2023-12-20T10:20:19;11.95;;;10.02;;
82495;SDS011;72133;42.522;24.800;2023-12-20T10:22:45;11.93;;;9.20;;
82495;SDS011;72133;42.522;24.800;2023-12-20T10:25:11;12.13;;;9.98;;
82495;SDS011;72133;42.522;24.800;2023-12-20T10:27:37;14.15;;;10.43;;
82495;SDS011;72133;42.522;24.800;2023-12-20T10:30:03;12.05;;;9.25;;
82495;SDS011;72133;42.522;24.800;2023-12-20T10:32:29;11.05;;;9.38;;
82495;SDS011;72133;42.522;24.800;2023-12-20T10:34:55;12.38;;;9.88;;
82495;SDS011;72133;42.522;24.800;2023-12-20T10:37:21;12.75;;;9.25;;
82495;SDS011;72133;42.522;24.800;2023-12-20T10:39:49;17.42;;;12.65;;
82495;SDS011;72133;42.522;24.800;2023-12-20T10:42:17;14.88;;;11.68;;
82495;SDS011;72133;42.522;24.800;2023-12-20T10:44:43;13.73;;;11.35;;
82495;SDS011;72133;42.522;24.800;2023-12-20T10:47:09;51.05;;;43.35;;
82495;SDS011;72133;42.522;24.800;2023-12-20T10:49:37;54.13;;;41.28;;
82495;SDS011;72133;42.522;24.800;2023-12-20T10:52:02;45.25;;;40.92;;
82495;SDS011;72133;42.522;24.800;2023-12-20T10:54:29;16.40;;;13.73;;
82495;SDS011;72133;42.522;24.800;2023-12-20T10:56:55;20.08;;;16.10;;
82495;SDS011;72133;42.522;24.800;2023-12-20T10:59:23;19.08;;;15.15;;
82495;SDS011;72133;42.522;24.800;2023-12-20T11:01:50;17.17;;;14.45;;
82495;SDS011;72133;42.522;24.800;2023-12-20T11:04:17;19.55;;;16.33;;
82495;SDS011;72133;42.522;24.800;2023-12-20T11:06:47;18.77;;;15.02;;
82495;SDS011;72133;42.522;24.800;2023-12-20T11:09:23;20.50;;;15.73;;
82495;SDS011;72133;42.522;24.800;2023-12-20T11:14:28;18.13;;;13.65;;
82495;SDS011;72133;42.522;24.800;2023-12-20T11:17:07;18.42;;;14.10;;
82495;SDS011;72133;42.522;24.800;2023-12-20T11:19:32;18.77;;;15.02;;
82495;SDS011;72133;42.522;24.800;2023-12-20T11:22:01;17.50;;;13.00;;
82495;SDS011;72133;42.522;24.800;2023-12-20T11:24:26;17.40;;;14.52;;
82495;SDS011;72133;42.522;24.800;2023-12-20T11:26:54;16.33;;;12.98;;
82495;SDS011;72133;42.522;24.800;2023-12-20T11:29:31;15.07;;;11.50;;
82495;SDS011;72133;42.522;24.800;2023-12-20T11:32:01;14.15;;;11.80;;
82495;SDS011;72133;42.522;24.800;2023-12-20T11:34:56;14.10;;;11.93;;
82495;SDS011;72133;42.522;24.800;2023-12-20T11:37:35;14.98;;;12.13;;
82495;SDS011;72133;42.522;24.800;2023-12-20T11:40:02;16.00;;;12.43;;
82495;SDS011;72133;42.522;24.800;2023-12-20T11:42:42;15.98;;;12.15;;
82495;SDS011;72133;42.522;24.800;2023-12-20T11:45:15;15.20;;;11.60;;
82495;SDS011;72133;42.522;24.800;2023-12-20T11:47:46;16.08;;;12.25;;
82495;SDS011;72133;42.522;24.800;2023-12-20T11:50:12;16.95;;;12.55;;
82495;SDS011;72133;42.522;24.800;2023-12-20T11:52:38;15.88;;;12.05;;
82495;SDS011;72133;42.522;24.800;2023-12-20T11:55:03;15.77;;;11.68;;
82495;SDS011;72133;42.522;24.800;2023-12-20T11:57:33;15.63;;;11.63;;
82495;SDS011;72133;42.522;24.800;2023-12-20T11:59:59;13.50;;;10.40;;
82495;SDS011;72133;42.522;24.800;2023-12-20T12:02:24;14.32;;;11.82;;
82495;SDS011;72133;42.522;24.800;2023-12-20T12:04:50;15.05;;;11.77;;
82495;SDS011;72133;42.522;24.800;2023-12-20T12:07:16;15.27;;;10.55;;
82495;SDS011;72133;42.522;24.800;2023-12-20T12:09:42;13.90;;;11.57;;
82495;SDS011;72133;42.522;24.800;2023-12-20T12:12:08;14.77;;;11.65;;
82495;SDS011;72133;42.522;24.800;2023-12-20T12:14:33;15.65;;;12.05;;
82495;SDS011;72133;42.522;24.800;2023-12-20T12:17:02;16.95;;;12.68;;
82495;SDS011;72133;42.522;24.800;2023-12-20T12:19:29;21.08;;;13.90;;
82495;SDS011;72133;42.522;24.800;2023-12-20T12:22:09;15.35;;;12.23;;
82495;SDS011;72133;42.522;24.800;2023-12-20T12:24:39;14.45;;;11.32;;
82495;SDS011;72133;42.522;24.800;2023-12-20T12:27:06;16.52;;;12.30;;
82495;SDS011;72133;42.522;24.800;2023-12-20T12:29:32;15.65;;;12.60;;
82495;SDS011;72133;42.522;24.800;2023-12-20T12:31:58;14.98;;;10.88;;
82495;SDS011;72133;42.522;24.800;2023-12-20T12:34:26;15.18;;;11.68;;
82495;SDS011;72133;42.522;24.800;2023-12-20T12:36:52;13.57;;;10.18;;
82495;SDS011;72133;42.522;24.800;2023-12-20T12:39:18;12.68;;;9.50;;
82495;SDS011;72133;42.522;24.800;2023-12-20T12:41:44;14.02;;;9.90;;
82495;SDS011;72133;42.522;24.800;2023-12-20T12:44:09;13.52;;;10.18;;
82495;SDS011;72133;42.522;24.800;2023-12-20T12:46:35;13.55;;;10.45;;
82495;SDS011;72133;42.522;24.800;2023-12-20T12:49:00;15.13;;;12.02;;
82495;SDS011;72133;42.522;24.800;2023-12-20T12:51:26;16.23;;;13.10;;
82495;SDS011;72133;42.522;24.800;2023-12-20T12:53:52;16.98;;;13.40;;
82495;SDS011;72133;42.522;24.800;2023-12-20T12:56:18;16.20;;;13.32;;
82495;SDS011;72133;42.522;24.800;2023-12-20T12:58:44;16.42;;;12.90;;
82495;SDS011;72133;42.522;24.800;2023-12-20T13:01:10;17.20;;;13.57;;
82495;SDS011;72133;42.522;24.800;2023-12-20T13:03:35;24.17;;;14.68;;
82495;SDS011;72133;42.522;24.800;2023-12-20T13:06:01;23.33;;;17.05;;
82495;SDS011;72133;42.522;24.800;2023-12-20T13:08:27;20.88;;;15.57;;
82495;SDS011;72133;42.522;24.800;2023-12-20T13:10:53;18.02;;;14.25;;
82495;SDS011;72133;42.522;24.800;2023-12-20T13:13:18;18.95;;;15.00;;
82495;SDS011;72133;42.522;24.800;2023-12-20T13:15:44;20.85;;;16.02;;
82495;SDS011;72133;42.522;24.800;2023-12-20T13:18:17;20.83;;;16.10;;
82495;SDS011;72133;42.522;24.800;2023-12-20T13:20:43;19.85;;;15.38;;
82495;SDS011;72133;42.522;24.800;2023-12-20T13:23:09;22.10;;;17.23;;
82495;SDS011;72133;42.522;24.800;2023-12-20T13:25:35;20.48;;;15.93;;
82495;SDS011;72133;42.522;24.800;2023-12-20T13:28:01;21.27;;;16.08;;
82495;SDS011;72133;42.522;24.800;2023-12-20T13:30:27;21.15;;;16.55;;
82495;SDS011;72133;42.522;24.800;2023-12-20T13:32:53;21.50;;;15.90;;
82495;SDS011;72133;42.522;24.800;2023-12-20T13:35:19;19.92;;;16.52;;
82495;SDS011;72133;42.522;24.800;2023-12-20T13:37:45;22.90;;;16.60;;
82495;SDS011;72133;42.522;24.800;2023-12-20T13:40:11;24.48;;;19.88;;
82495;SDS011;72133;42.522;24.800;2023-12-20T13:42:37;30.98;;;22.75;;
82495;SDS011;72133;42.522;24.800;2023-12-20T13:45:07;33.95;;;23.08;;
82495;SDS011;72133;42.522;24.800;2023-12-20T13:47:33;32.30;;;22.52;;
82495;SDS011;72133;42.522;24.800;2023-12-20T13:50:00;29.73;;;22.25;;
82495;SDS011;72133;42.522;24.800;2023-12-20T13:52:26;24.52;;;19.73;;
82495;SDS011;72133;42.522;24.800;2023-12-20T13:54:52;25.85;;;19.45;;
82495;SDS011;72133;42.522;24.800;2023-12-20T13:57:17;27.17;;;19.33;;
82495;SDS011;72133;42.522;24.800;2023-12-20T13:59:43;22.20;;;17.63;;
82495;SDS011;72133;42.522;24.800;2023-12-20T14:02:09;21.90;;;18.38;;
82495;SDS011;72133;42.522;24.800;2023-12-20T14:04:34;26.02;;;18.50;;
82495;SDS011;72133;42.522;24.800;2023-12-20T14:07:00;21.52;;;17.25;;
82495;SDS011;72133;42.522;24.800;2023-12-20T14:09:26;21.42;;;17.13;;
82495;SDS011;72133;42.522;24.800;2023-12-20T14:11:51;27.23;;;23.25;;
82495;SDS011;72133;42.522;24.800;2023-12-20T14:14:17;24.65;;;20.63;;
82495;SDS011;72133;42.522;24.800;2023-12-20T14:16:43;20.67;;;17.08;;